Time,TemperatureF,DewpointF,PressureIn,WindDirection,WindDirectionDegrees,WindSpeedMPH,WindSpeedGustMPH,Humidity,HourlyPrecipIn,Conditions,Clouds,dailyrainin,SoftwareType,DateUTC
2013-06-14 00:01:00,67.0,54.0,29.62,NW,306,11.0,19.0,63,0.00,,,0.54,,2013-06-14 04:01:00,
2013-06-14 00:12:00,67.0,54.0,29.63,NNW,331,9.0,18.0,63,0.00,,,0.54,,2013-06-14 04:12:00,
2013-06-14 00:23:00,67.0,54.0,29.63,North,360,10.0,17.0,63,0.00,,,0.54,,2013-06-14 04:23:00,
2013-06-14 00:33:00,67.0,54.0,29.63,NNW,345,10.0,15.0,63,0.00,,,0.54,,2013-06-14 04:33:00,
2013-06-14 00:43:00,67.0,54.0,29.64,NNW,333,9.0,14.0,63,0.00,,,0.54,,2013-06-14 04:43:00,
2013-06-14 00:53:00,67.0,54.0,29.65,NNW,338,8.0,14.0,64,0.00,,,0.54,,2013-06-14 04:53:00,
2013-06-14 01:02:00,67.0,54.0,29.65,NNW,341,13.0,19.0,62,0.00,,,0.54,,2013-06-14 05:02:00,
2013-06-14 01:11:00,66.0,53.0,29.65,NW,318,10.0,17.0,63,0.00,,,0.54,,2013-06-14 05:11:00,
2013-06-14 01:22:00,66.0,53.0,29.65,NW,319,11.0,17.0,63,0.00,,,0.54,,2013-06-14 05:22:00,
2013-06-14 01:34:00,66.0,53.0,29.66,NNW,338,10.0,14.0,64,0.00,,,0.54,,2013-06-14 05:34:00,
2013-06-14 01:43:00,66.0,53.0,29.66,NNW,346,10.0,16.0,64,0.00,,,0.54,,2013-06-14 05:43:00,
2013-06-14 01:52:00,65.0,53.0,29.66,NNE,17,9.0,16.0,64,0.00,,,0.54,,2013-06-14 05:52:00,
2013-06-14 02:02:00,65.0,53.0,29.67,NNE,13,7.0,16.0,65,0.00,,,0.54,,2013-06-14 06:02:00,
2013-06-14 02:12:00,65.0,53.0,29.67,NNW,338,9.0,14.0,66,0.00,,,0.54,,2013-06-14 06:12:00,
2013-06-14 02:22:00,65.0,53.0,29.66,North,355,8.0,11.0,66,0.00,,,0.54,,2013-06-14 06:22:00,
2013-06-14 02:33:00,65.0,53.0,29.67,North,355,8.0,15.0,66,0.00,,,0.54,,2013-06-14 06:33:00,
2013-06-14 02:43:00,65.0,53.0,29.67,North,360,8.0,17.0,66,0.00,,,0.54,,2013-06-14 06:43:00,
2013-06-14 02:52:00,64.0,52.0,29.67,North,355,10.0,17.0,66,0.00,,,0.54,,2013-06-14 06:52:00,
2013-06-14 03:02:00,64.0,52.0,29.68,NNW,330,7.0,12.0,66,0.00,,,0.54,,2013-06-14 07:02:00,
2013-06-14 03:12:00,64.0,52.0,29.69,NNE,17,7.0,11.0,66,0.00,,,0.54,,2013-06-14 07:12:00,
2013-06-14 03:22:00,64.0,52.0,29.69,North,360,7.0,11.0,66,0.00,,,0.54,,2013-06-14 07:22:00,
2013-06-14 03:33:00,64.0,52.0,29.70,North,5,7.0,16.0,66,0.00,,,0.54,,2013-06-14 07:33:00,
2013-06-14 03:43:00,64.0,52.0,29.70,North,360,6.0,13.0,66,0.00,,,0.54,,2013-06-14 07:43:00,
2013-06-14 03:53:00,64.0,53.0,29.70,North,5,6.0,12.0,67,0.00,,,0.54,,2013-06-14 07:53:00,
2013-06-14 04:02:00,64.0,52.0,29.71,NNE,12,6.0,12.0,66,0.00,,,0.54,,2013-06-14 08:02:00,
2013-06-14 04:12:00,64.0,52.0,29.71,North,5,8.0,14.0,66,0.00,,,0.54,,2013-06-14 08:12:00,
2013-06-14 04:23:00,64.0,52.0,29.71,North,360,8.0,14.0,66,0.00,,,0.54,,2013-06-14 08:23:00,
2013-06-14 04:33:00,64.0,52.0,29.72,NNE,18,8.0,13.0,66,0.00,,,0.54,,2013-06-14 08:33:00,
2013-06-14 04:43:00,64.0,52.0,29.72,North,360,7.0,11.0,66,0.00,,,0.54,,2013-06-14 08:43:00,
2013-06-14 04:53:00,64.0,52.0,29.72,NW,317,7.0,11.0,66,0.00,,,0.54,,2013-06-14 08:53:00,
2013-06-14 05:02:00,64.0,53.0,29.73,North,355,5.0,14.0,67,0.00,,,0.54,,2013-06-14 09:02:00,
2013-06-14 05:12:00,64.0,53.0,29.73,North,350,5.0,12.0,67,0.00,,,0.54,,2013-06-14 09:12:00,
2013-06-14 05:22:00,64.0,53.0,29.74,North,5,4.0,12.0,67,0.00,,,0.54,,2013-06-14 09:22:00,
2013-06-14 05:33:00,63.0,52.0,29.74,North,355,5.0,9.0,68,0.00,,,0.54,,2013-06-14 09:33:00,
2013-06-14 05:43:00,63.0,52.0,29.75,North,355,4.0,9.0,68,0.00,,,0.54,,2013-06-14 09:43:00,
2013-06-14 05:53:00,63.0,53.0,29.75,NNW,346,4.0,7.0,69,0.00,,,0.54,,2013-06-14 09:53:00,
2013-06-14 06:01:00,63.0,53.0,29.75,North,355,4.0,8.0,69,0.00,,,0.54,,2013-06-14 10:01:00,
2013-06-14 06:12:00,63.0,53.0,29.76,North,350,2.0,4.0,70,0.00,,,0.53,,2013-06-14 10:12:00,
2013-06-14 06:22:00,62.0,52.0,29.76,North,350,3.0,4.0,71,0.00,,,0.53,,2013-06-14 10:22:00,
2013-06-14 06:34:00,62.0,52.0,29.76,North,350,2.0,4.0,71,0.00,,,0.53,,2013-06-14 10:34:00,
2013-06-14 06:43:00,63.0,53.0,29.77,NNW,343,6.0,10.0,69,0.00,,,0.53,,2013-06-14 10:43:00,
2013-06-14 06:52:00,63.0,53.0,29.77,NNW,344,6.0,10.0,69,0.00,,,0.53,,2013-06-14 10:52:00,
2013-06-14 07:02:00,63.0,53.0,29.78,NNW,342,7.0,10.0,69,0.00,,,0.53,,2013-06-14 11:02:00,
2013-06-14 07:11:00,63.0,52.0,29.78,NNW,335,6.0,9.0,68,0.00,,,0.53,,2013-06-14 11:11:00,
2013-06-14 07:23:00,63.0,52.0,29.79,North,355,7.0,11.0,68,0.00,,,0.53,,2013-06-14 11:23:00,
2013-06-14 07:32:00,63.0,52.0,29.79,NNW,329,8.0,12.0,68,0.00,,,0.53,,2013-06-14 11:32:00,
2013-06-14 07:43:00,63.0,52.0,29.80,North,349,6.0,12.0,68,0.00,,,0.53,,2013-06-14 11:43:00,
2013-06-14 07:52:00,64.0,53.0,29.80,North,355,8.0,11.0,67,0.00,,,0.53,,2013-06-14 11:52:00,
2013-06-14 08:02:00,64.0,53.0,29.80,North,355,7.0,11.0,68,0.00,,,0.53,,2013-06-14 12:02:00,
2013-06-14 08:12:00,65.0,53.0,29.81,NNW,339,7.0,14.0,66,0.00,,,0.09,,2013-06-14 12:12:00,
2013-06-14 08:22:00,66.0,54.0,29.82,NNW,333,10.0,17.0,65,0.00,,,0.09,,2013-06-14 12:22:00,
2013-06-14 08:33:00,65.0,53.0,29.82,NNW,338,9.0,14.0,65,0.00,,,0.09,,2013-06-14 12:33:00,
2013-06-14 08:43:00,65.0,53.0,29.83,North,360,10.0,15.0,64,0.00,,,0.09,,2013-06-14 12:43:00,
2013-06-14 08:52:00,66.0,53.0,29.83,North,355,9.0,15.0,64,0.00,,,0.09,,2013-06-14 12:52:00,
2013-06-14 09:02:00,66.0,53.0,29.83,North,349,10.0,15.0,62,0.00,,,0.09,,2013-06-14 13:02:00,
2013-06-14 09:12:00,66.0,53.0,29.85,North,350,9.0,15.0,64,0.00,,,0.09,,2013-06-14 13:12:00,
2013-06-14 09:22:00,66.0,53.0,29.85,North,5,10.0,15.0,62,0.00,,,0.00,,2013-06-14 13:22:00,
2013-06-14 09:33:00,66.0,53.0,29.85,North,5,10.0,15.0,62,0.00,,,0.00,,2013-06-14 13:33:00,
2013-06-14 09:43:00,66.0,52.0,29.85,North,5,9.0,14.0,61,0.00,,,0.00,,2013-06-14 13:43:00,
2013-06-14 09:53:00,67.0,53.0,29.86,North,11,7.0,13.0,61,0.00,,,0.00,,2013-06-14 13:53:00,
2013-06-14 10:02:00,67.0,53.0,29.86,North,349,5.0,13.0,61,0.00,,,0.00,,2013-06-14 14:02:00,
2013-06-14 10:11:00,67.0,52.0,29.87,NE,39,6.0,11.0,58,0.00,,,0.00,,2013-06-14 14:11:00,
2013-06-14 10:22:00,69.0,54.0,29.87,NNW,341,8.0,12.0,58,0.00,,,0.00,,2013-06-14 14:22:00,
2013-06-14 10:34:00,68.0,54.0,29.88,NNW,335,6.0,12.0,60,0.00,,,0.00,,2013-06-14 14:34:00,
2013-06-14 10:43:00,68.0,52.0,29.88,NNE,28,6.0,11.0,57,0.00,,,0.00,,2013-06-14 14:43:00,
2013-06-14 10:52:00,69.0,53.0,29.88,NNE,26,7.0,13.0,57,0.00,,,0.00,,2013-06-14 14:52:00,
2013-06-14 11:02:00,68.0,51.0,29.88,North,5,5.0,8.0,55,0.00,,,0.00,,2013-06-14 15:02:00,
2013-06-14 11:11:00,68.0,52.0,29.88,North,10,4.0,8.0,57,0.00,,,0.00,,2013-06-14 15:11:00,
2013-06-14 11:23:00,70.0,54.0,29.88,North,355,3.0,9.0,57,0.00,,,0.00,,2013-06-14 15:23:00,
2013-06-14 11:33:00,70.0,54.0,29.88,NW,321,4.0,8.0,56,0.00,,,0.00,,2013-06-14 15:33:00,
2013-06-14 11:44:00,71.0,54.0,29.88,North,355,7.0,11.0,55,0.00,,,0.00,,2013-06-14 15:44:00,
2013-06-14 11:53:00,71.0,53.0,29.88,North,5,8.0,12.0,53,0.00,,,0.00,,2013-06-14 15:53:00,
2013-06-14 12:01:00,72.0,56.0,29.88,NNW,346,2.0,12.0,58,0.00,,,0.00,,2013-06-14 16:01:00,
2013-06-14 12:11:00,71.0,52.0,29.88,NW,306,5.0,11.0,52,0.00,,,0.00,,2013-06-14 16:11:00,
2013-06-14 12:23:00,72.0,54.0,29.88,NW,311,4.0,14.0,53,0.00,,,0.00,,2013-06-14 16:23:00,
2013-06-14 12:33:00,72.0,54.0,29.89,NNW,347,7.0,14.0,54,0.00,,,0.00,,2013-06-14 16:33:00,
2013-06-14 12:43:00,72.0,55.0,29.88,ENE,64,4.0,10.0,55,0.00,,,0.00,,2013-06-14 16:43:00,
2013-06-14 12:52:00,72.0,54.0,29.88,NNW,336,6.0,12.0,53,0.00,,,0.00,,2013-06-14 16:52:00,
2013-06-14 13:02:00,72.0,53.0,29.88,North,355,4.0,12.0,51,0.00,,,0.00,,2013-06-14 17:02:00,
2013-06-14 13:12:00,73.0,54.0,29.89,North,355,5.0,13.0,52,0.00,,,0.00,,2013-06-14 17:12:00,
2013-06-14 13:22:00,74.0,54.0,29.88,NNW,335,8.0,15.0,49,0.00,,,0.00,,2013-06-14 17:22:00,
2013-06-14 13:34:00,75.0,55.0,29.89,NNW,336,7.0,17.0,49,0.00,,,0.00,,2013-06-14 17:34:00,
2013-06-14 13:43:00,75.0,53.0,29.88,North,5,7.0,15.0,46,0.00,,,0.00,,2013-06-14 17:43:00,
2013-06-14 13:53:00,75.0,55.0,29.88,NW,319,7.0,15.0,49,0.00,,,0.00,,2013-06-14 17:53:00,
2013-06-14 14:02:00,75.0,54.0,29.88,NNW,345,8.0,14.0,48,0.00,,,0.00,,2013-06-14 18:02:00,
2013-06-14 14:11:00,75.0,53.0,29.88,NNW,330,6.0,15.0,47,0.00,,,0.00,,2013-06-14 18:11:00,
2013-06-14 14:22:00,75.0,55.0,29.88,NW,317,5.0,12.0,49,0.00,,,0.00,,2013-06-14 18:22:00,
2013-06-14 14:32:00,76.0,54.0,29.88,NW,320,5.0,13.0,46,0.00,,,0.00,,2013-06-14 18:32:00,
2013-06-14 14:43:00,76.0,54.0,29.88,NNW,344,8.0,14.0,47,0.00,,,0.00,,2013-06-14 18:43:00,
2013-06-14 14:52:00,76.0,54.0,29.88,NW,322,9.0,15.0,47,0.00,,,0.00,,2013-06-14 18:52:00,
2013-06-14 15:01:00,76.0,53.0,29.88,NNE,12,5.0,12.0,45,0.00,,,0.00,,2013-06-14 19:01:00,
2013-06-14 15:11:00,77.0,53.0,29.88,NNE,18,8.0,16.0,43,0.00,,,0.00,,2013-06-14 19:11:00,
2013-06-14 15:22:00,78.0,53.0,29.88,NNW,342,9.0,14.0,42,0.00,,,0.00,,2013-06-14 19:22:00,
2013-06-14 15:32:00,78.0,53.0,29.88,NNW,346,8.0,14.0,42,0.00,,,0.00,,2013-06-14 19:32:00,
2013-06-14 15:43:00,77.0,51.0,29.87,North,360,9.0,14.0,41,0.00,,,0.00,,2013-06-14 19:43:00,
2013-06-14 15:53:00,78.0,54.0,29.87,NNW,336,8.0,13.0,43,0.00,,,0.00,,2013-06-14 19:53:00,
2013-06-14 16:02:00,78.0,54.0,29.87,NNW,338,8.0,15.0,44,0.00,,,0.00,,2013-06-14 20:02:00,
2013-06-14 16:11:00,77.0,52.0,29.87,NNW,342,7.0,13.0,42,0.00,,,0.00,,2013-06-14 20:11:00,
2013-06-14 16:22:00,77.0,53.0,29.87,North,355,6.0,10.0,44,0.00,,,0.00,,2013-06-14 20:22:00,
2013-06-14 16:33:00,78.0,53.0,29.87,NNW,340,13.0,16.0,42,0.00,,,0.00,,2013-06-14 20:33:00,
2013-06-14 16:43:00,78.0,55.0,29.87,North,351,10.0,16.0,45,0.00,,,0.00,,2013-06-14 20:43:00,
2013-06-14 16:53:00,77.0,53.0,29.87,NNE,22,9.0,16.0,43,0.00,,,0.00,,2013-06-14 20:53:00,
2013-06-14 17:02:00,78.0,54.0,29.88,NNW,345,10.0,16.0,43,0.00,,,0.00,,2013-06-14 21:02:00,
2013-06-14 17:12:00,77.0,53.0,29.88,NNW,339,8.0,16.0,43,0.00,,,0.00,,2013-06-14 21:12:00,
2013-06-14 17:22:00,78.0,55.0,29.88,NNW,338,8.0,15.0,45,0.00,,,0.00,,2013-06-14 21:22:00,
2013-06-14 17:34:00,78.0,56.0,29.88,NNW,340,10.0,15.0,47,0.00,,,0.00,,2013-06-14 21:34:00,
2013-06-14 17:42:00,76.0,53.0,29.88,NNW,348,11.0,15.0,45,0.00,,,0.00,,2013-06-14 21:42:00,
2013-06-14 17:52:00,77.0,55.0,29.88,NNW,346,11.0,19.0,46,0.00,,,0.00,,2013-06-14 21:52:00,
2013-06-14 18:02:00,77.0,53.0,29.88,North,355,11.0,15.0,43,0.00,,,0.00,,2013-06-14 22:02:00,
2013-06-14 18:12:00,77.0,54.0,29.88,NNW,342,10.0,13.0,45,0.00,,,0.00,,2013-06-14 22:12:00,
2013-06-14 18:22:00,77.0,54.0,29.88,North,355,8.0,11.0,45,0.00,,,0.00,,2013-06-14 22:22:00,
2013-06-14 18:33:00,77.0,55.0,29.88,NNW,341,8.0,13.0,46,0.00,,,0.00,,2013-06-14 22:33:00,
2013-06-14 18:43:00,77.0,55.0,29.88,NW,323,5.0,15.0,47,0.00,,,0.00,,2013-06-14 22:43:00,
2013-06-14 18:53:00,76.0,55.0,29.89,NNW,338,5.0,12.0,48,0.00,,,0.00,,2013-06-14 22:53:00,
2013-06-14 19:02:00,77.0,55.0,29.89,NNW,335,6.0,11.0,47,0.00,,,0.00,,2013-06-14 23:02:00,
2013-06-14 19:12:00,76.0,54.0,29.90,NW,316,5.0,12.0,46,0.00,,,0.00,,2013-06-14 23:12:00,
2013-06-14 19:22:00,76.0,54.0,29.90,NNW,335,8.0,12.0,46,0.00,,,0.00,,2013-06-14 23:22:00,
2013-06-14 19:33:00,75.0,54.0,29.90,NNW,346,5.0,11.0,48,0.00,,,0.00,,2013-06-14 23:33:00,
2013-06-14 19:43:00,75.0,55.0,29.90,NNW,335,5.0,10.0,49,0.00,,,0.00,,2013-06-14 23:43:00,
2013-06-14 19:52:00,75.0,56.0,29.91,NNW,347,4.0,10.0,51,0.00,,,0.00,,2013-06-14 23:52:00,
2013-06-14 20:01:00,75.0,56.0,29.91,NNW,329,2.0,6.0,51,0.00,,,0.00,,2013-06-15 00:01:00,
2013-06-14 20:12:00,74.0,55.0,29.91,NNW,338,2.0,6.0,52,0.00,,,0.00,,2013-06-15 00:12:00,
2013-06-14 20:23:00,74.0,56.0,29.91,NNW,332,2.0,7.0,54,0.00,,,0.00,,2013-06-15 00:23:00,
2013-06-14 20:34:00,73.0,55.0,29.91,NNW,332,3.0,7.0,54,0.00,,,0.00,,2013-06-15 00:34:00,
2013-06-14 20:43:00,73.0,56.0,29.92,NNW,336,2.0,6.0,55,0.00,,,0.00,,2013-06-15 00:43:00,
2013-06-14 20:53:00,72.0,55.0,29.92,NNW,333,1.0,6.0,55,0.00,,,0.00,,2013-06-15 00:53:00,
2013-06-14 21:01:00,72.0,55.0,29.92,NNW,333,1.0,5.0,55,0.00,,,0.00,,2013-06-15 01:01:00,
2013-06-14 21:11:00,72.0,55.0,29.92,NNW,329,1.0,5.0,56,0.00,,,0.00,,2013-06-15 01:11:00,
2013-06-14 21:22:00,70.0,55.0,29.92,NNW,329,0.0,1.0,58,0.00,,,0.00,,2013-06-15 01:22:00,
2013-06-14 21:33:00,70.0,55.0,29.93,NNW,329,0.0,0.0,58,0.00,,,0.00,,2013-06-15 01:33:00,
2013-06-14 21:43:00,69.0,55.0,29.93,NNW,329,0.0,0.0,60,0.00,,,0.00,,2013-06-15 01:43:00,
2013-06-14 21:54:00,68.0,54.0,29.93,NNW,329,0.0,0.0,61,0.00,,,0.00,,2013-06-15 01:54:00,
2013-06-14 22:02:00,68.0,54.0,29.94,NNW,329,0.0,2.0,62,0.00,,,0.00,,2013-06-15 02:02:00,
2013-06-14 22:12:00,68.0,54.0,29.94,NNW,329,1.0,2.0,61,0.00,,,0.00,,2013-06-15 02:12:00,
2013-06-14 22:23:00,69.0,55.0,29.95,NNW,329,0.0,2.0,61,0.00,,,0.00,,2013-06-15 02:23:00,
2013-06-14 22:34:00,68.0,54.0,29.95,NNW,329,0.0,0.0,61,0.00,,,0.00,,2013-06-15 02:34:00,
2013-06-14 22:43:00,67.0,54.0,29.95,NNW,329,0.0,0.0,64,0.00,,,0.00,,2013-06-15 02:43:00,
2013-06-14 22:53:00,67.0,54.0,29.95,NNW,329,0.0,2.0,64,0.00,,,0.00,,2013-06-15 02:53:00,
2013-06-14 23:01:00,67.0,54.0,29.96,NNW,329,1.0,3.0,64,0.00,,,0.00,,2013-06-15 03:01:00,
2013-06-14 23:11:00,67.0,54.0,29.96,NNW,329,1.0,3.0,64,0.00,,,0.00,,2013-06-15 03:11:00,
2013-06-14 23:24:00,67.0,55.0,29.96,NNW,329,0.0,1.0,65,0.00,,,0.00,,2013-06-15 03:24:00,
2013-06-14 23:32:00,66.0,54.0,29.97,NNW,329,0.0,1.0,66,0.00,,,0.00,,2013-06-15 03:32:00,
2013-06-14 23:44:00,66.0,55.0,29.97,NNW,329,0.0,1.0,67,0.00,,,0.00,,2013-06-15 03:44:00,
2013-06-14 23:52:00,66.0,55.0,29.97,NNW,329,0.0,1.0,67,0.00,,,0.00,,2013-06-15 03:52:00,